Time;durP1;ratioP1;P1;durP2;ratioP2;P2;SDS_P1;SDS_P2;PMS_P1;PMS_P2;Temp;Humidity;BMP_temperature;BMP_pressure;BME280_temperature;BME280_humidity;BME280_pressure;Samples;Min_cycle;Max_cycle;Signal;HPM_P1;HPM_P2
2022/09/26 00:00:15;;;;;;;25.55;15.80;;;;;;;10.81;100.00;99757.40;1814471;79;21566;-91
2022/09/26 00:02:43;;;;;;;26.05;15.60;;;;;;;10.66;100.00;99757.59;1814488;79;20987;-92
2022/09/26 00:05:15;;;;;;;25.85;16.75;;;;;;;10.76;100.00;99754.55;1814503;79;21109;-92
2022/09/26 00:07:43;;;;;;;23.40;15.40;;;;;;;10.89;100.00;99741.25;1814768;78;21068;-91
2022/09/26 00:10:11;;;;;;;28.47;16.05;;;;;;;11.05;100.00;99739.63;1815119;79;21284;-91
2022/09/26 00:12:39;;;;;;;23.60;15.48;;;;;;;11.25;100.00;99749.71;1816004;79;21078;-91
2022/09/26 00:15:09;;;;;;;20.90;13.78;;;;;;;11.06;100.00;99751.86;1813233;79;21065;-91
2022/09/26 00:17:37;;;;;;;22.45;13.15;;;;;;;11.07;100.00;99756.23;1814477;79;21070;-92
2022/09/26 00:20:06;;;;;;;20.27;12.58;;;;;;;11.09;100.00;99754.38;1813746;79;21236;-92
2022/09/26 00:22:34;;;;;;;20.20;14.40;;;;;;;11.08;100.00;99757.92;1814297;79;21070;-92
2022/09/26 00:25:01;;;;;;;18.87;12.23;;;;;;;11.17;100.00;99754.50;1813780;79;21634;-88
2022/09/26 00:27:27;;;;;;;19.60;12.58;;;;;;;11.25;100.00;99757.19;1814197;79;21087;-92
2022/09/26 00:29:54;;;;;;;21.00;15.00;;;;;;;11.24;100.00;99755.92;1814058;79;21094;-91
2022/09/26 00:32:20;;;;;;;17.37;12.45;;;;;;;11.19;100.00;99752.18;1814323;79;21184;-92
2022/09/26 00:34:50;;;;;;;20.25;13.93;;;;;;;11.22;100.00;99746.76;1814389;79;21015;-92
2022/09/26 00:37:16;;;;;;;17.90;12.68;;;;;;;11.26;100.00;99753.61;1823307;78;21084;-90
2022/09/26 00:39:43;;;;;;;24.55;14.58;;;;;;;11.32;100.00;99752.48;1831850;77;21015;-91
2022/09/26 00:42:13;;;;;;;22.95;14.55;;;;;;;11.29;100.00;99752.61;1831911;78;21077;-91
2022/09/26 00:44:48;;;;;;;21.60;13.98;;;;;;;11.20;100.00;99739.85;1832493;78;21100;-91
2022/09/26 00:47:43;;;;;;;22.32;14.07;;;;;;;11.15;100.00;99739.21;1831980;78;21108;-92
2022/09/26 00:50:19;;;;;;;20.23;13.60;;;;;;;11.20;100.00;99731.94;1831254;78;21041;-92
2022/09/26 00:53:06;;;;;;;19.73;13.88;;;;;;;11.28;100.00;99725.88;1831719;77;21285;-91
2022/09/26 00:55:44;;;;;;;17.60;11.33;;;;;;;11.37;100.00;99732.03;1831241;77;21002;-92
2022/09/26 00:58:19;;;;;;;23.02;14.63;;;;;;;11.26;100.00;99739.11;1830185;77;21061;-90
2022/09/26 01:03:21;;;;;;;16.67;11.85;;;;;;;10.63;100.00;99732.72;1810901;76;28102;-90
2022/09/26 01:05:48;;;;;;;20.72;13.30;;;;;;;10.43;100.00;99735.34;1747705;81;20985;-89
2022/09/26 01:08:16;;;;;;;19.00;12.35;;;;;;;10.49;100.00;99727.20;1733664;81;21158;-91
2022/09/26 01:10:45;;;;;;;17.62;10.72;;;;;;;10.54;100.00;99718.63;1708653;81;21005;-91
2022/09/26 01:13:13;;;;;;;19.65;11.30;;;;;;;10.57;100.00;99719.80;1763375;78;21572;-89
2022/09/26 01:15:39;;;;;;;22.65;14.25;;;;;;;10.61;100.00;99724.02;1769820;78;21510;-91
2022/09/26 01:18:06;;;;;;;23.65;15.78;;;;;;;10.56;100.00;99720.74;1816027;79;21541;-92
2022/09/26 01:20:47;;;;;;;24.05;16.30;;;;;;;10.55;100.00;99711.58;1786480;77;21090;-91
2022/09/26 01:23:53;;;;;;;20.95;14.85;;;;;;;10.48;100.00;99720.20;1803855;77;21029;-92
2022/09/26 01:26:42;;;;;;;25.27;13.43;;;;;;;10.53;100.00;99720.86;1797971;77;21065;-91
2022/09/26 01:29:39;;;;;;;17.10;11.45;;;;;;;10.50;100.00;99717.05;1795367;77;20970;-88
2022/09/26 01:32:50;;;;;;;24.47;13.93;;;;;;;10.50;100.00;99714.41;1774021;80;20887;-90
2022/09/26 01:35:25;;;;;;;23.55;15.25;;;;;;;10.44;100.00;99719.94;1815397;77;21136;-92
2022/09/26 01:38:13;;;;;;;22.00;14.83;;;;;;;10.54;100.00;99719.95;1808154;77;21041;-92
2022/09/26 01:41:20;;;;;;;18.92;13.38;;;;;;;10.51;100.00;99716.11;1804773;77;20931;-93
2022/09/26 01:44:14;;;;;;;26.25;15.32;;;;;;;10.56;100.00;99718.11;1767983;79;21206;-91
2022/09/26 01:47:09;;;;;;;27.70;17.00;;;;;;;10.53;100.00;99723.48;1768649;81;21065;-92
2022/09/26 01:49:57;;;;;;;27.27;17.75;;;;;;;10.79;100.00;99714.47;1770476;80;21149;-92
2022/09/26 01:52:41;;;;;;;31.33;18.05;;;;;;;10.67;100.00;99713.23;1759478;79;21054;-91
2022/09/26 01:55:18;;;;;;;19.32;13.13;;;;;;;10.59;100.00;99710.06;1805701;77;21036;-90
2022/09/26 01:57:51;;;;;;;24.92;15.65;;;;;;;10.66;100.00;99712.82;1808522;77;21072;-92
2022/09/26 02:00:19;;;;;;;21.40;15.18;;;;;;;10.69;100.00;99709.19;1809353;78;22264;-93
2022/09/26 02:02:48;;;;;;;22.75;14.58;;;;;;;10.81;100.00;99714.38;1803027;77;21235;-91
2022/09/26 02:05:34;;;;;;;25.05;15.18;;;;;;;10.81;100.00;99716.58;1797418;77;21000;-91
2022/09/26 02:08:16;;;;;;;23.92;15.35;;;;;;;10.74;100.00;99716.89;1789774;77;21119;-92
2022/09/26 02:10:58;;;;;;;19.82;13.50;;;;;;;10.73;100.00;99720.46;1790264;77;21063;-92
2022/09/26 02:13:29;;;;;;;20.00;13.90;;;;;;;10.77;100.00;99723.36;1754128;78;21085;-90
2022/09/26 02:16:00;;;;;;;18.80;11.80;;;;;;;10.77;100.00;99726.00;1797093;77;21102;-92
2022/09/26 02:18:42;;;;;;;21.93;13.78;;;;;;;10.64;100.00;99722.56;1793838;77;21017;-91
2022/09/26 02:21:13;;;;;;;27.40;17.30;;;;;;;10.52;100.00;99717.84;1805889;77;21062;-92
2022/09/26 02:23:41;;;;;;;27.60;17.65;;;;;;;10.57;100.00;99715.01;1797365;77;21546;-92
2022/09/26 02:26:07;;;;;;;28.52;17.02;;;;;;;10.54;100.00;99719.95;1798673;77;21576;-91
2022/09/26 02:28:36;;;;;;;25.17;16.93;;;;;;;10.54;100.00;99721.73;1792524;77;21849;-91
2022/09/26 02:31:05;;;;;;;23.80;16.37;;;;;;;10.59;100.00;99721.91;1794979;77;21440;-91
2022/09/26 02:33:31;;;;;;;25.20;15.70;;;;;;;10.56;100.00;99719.86;1782100;77;20989;-92
2022/09/26 02:35:59;;;;;;;26.10;17.57;;;;;;;10.62;100.00;99720.92;1799866;79;21002;-89
2022/09/26 02:38:30;;;;;;;22.30;15.03;;;;;;;10.70;100.00;99717.50;1808988;79;21009;-91
2022/09/26 02:41:28;;;;;;;24.80;16.50;;;;;;;10.66;100.00;99711.50;1805922;77;21157;-92
2022/09/26 02:44:10;;;;;;;28.98;18.40;;;;;;;10.55;100.00;99715.06;1807374;79;21058;-90
2022/09/26 02:47:17;;;;;;;28.65;17.23;;;;;;;10.60;100.00;99703.86;1794115;77;21568;-93
2022/09/26 02:50:15;;;;;;;26.75;17.17;;;;;;;10.63;100.00;99709.02;1766276;79;21033;-89
2022/09/26 02:53:09;;;;;;;21.75;13.98;;;;;;;10.57;100.00;99706.64;1806405;77;21194;-89
2022/09/26 02:56:17;;;;;;;23.32;15.80;;;;;;;10.51;100.00;99699.00;1803722;77;21225;-89
2022/09/26 02:59:10;;;;;;;34.38;18.75;;;;;;;10.51;100.00;99695.05;1801651;77;21067;-91
2022/09/26 03:02:04;;;;;;;27.82;17.48;;;;;;;10.42;100.00;99700.71;1769610;78;21033;-91
2022/09/26 03:04:46;;;;;;;31.27;18.85;;;;;;;10.32;100.00;99703.36;1802155;77;21065;-89
2022/09/26 03:07:20;;;;;;;34.43;18.17;;;;;;;10.48;100.00;99696.52;1791210;77;27036;-91
2022/09/26 03:09:48;;;;;;;27.17;16.00;;;;;;;10.37;100.00;99690.85;1800037;77;21133;-90
2022/09/26 03:12:15;;;;;;;24.00;16.80;;;;;;;10.27;100.00;99688.58;1799724;77;21001;-90
2022/09/26 03:14:44;;;;;;;26.42;17.95;;;;;;;10.26;100.00;99687.32;1808685;79;21037;-91
2022/09/26 03:17:12;;;;;;;22.27;16.25;;;;;;;10.35;100.00;99683.02;1795271;77;21091;-90
2022/09/26 03:19:48;;;;;;;22.67;15.68;;;;;;;10.38;100.00;99687.31;1803971;77;21050;-88
2022/09/26 03:22:15;;;;;;;22.13;15.80;;;;;;;10.28;100.00;99681.53;1804964;77;21617;-90
2022/09/26 03:24:41;;;;;;;28.73;16.95;;;;;;;10.24;100.00;99687.41;1787585;77;21056;-91
2022/09/26 03:27:14;;;;;;;25.35;17.23;;;;;;;10.19;100.00;99682.81;1778786;78;21045;-90
2022/09/26 03:29:45;;;;;;;23.35;16.62;;;;;;;10.27;100.00;99668.00;1797654;77;21184;-90
2022/09/26 03:32:15;;;;;;;21.87;15.80;;;;;;;10.21;100.00;99676.14;1780727;77;21120;-89
2022/09/26 03:34:42;;;;;;;27.87;18.75;;;;;;;10.24;100.00;99669.45;1790031;77;21148;-92
2022/09/26 03:37:10;;;;;;;27.22;18.60;;;;;;;10.25;100.00;99672.00;1781521;77;21068;-92
2022/09/26 03:39:40;;;;;;;24.98;15.03;;;;;;;10.26;100.00;99667.58;1798007;77;21007;-93
2022/09/26 03:42:09;;;;;;;26.52;16.77;;;;;;;10.23;100.00;99668.58;1777450;77;21057;-93
2022/09/26 03:44:39;;;;;;;26.85;18.10;;;;;;;10.24;100.00;99670.30;1809246;77;21050;-91
2022/09/26 03:47:09;;;;;;;24.82;17.15;;;;;;;10.26;100.00;99673.73;1801060;77;21099;-91
2022/09/26 03:49:37;;;;;;;22.45;16.20;;;;;;;10.36;100.00;99678.63;1807075;77;21068;-92
2022/09/26 03:52:09;;;;;;;27.10;18.40;;;;;;;10.33;100.00;99678.73;1796887;77;21251;-90
2022/09/26 03:54:40;;;;;;;27.98;19.27;;;;;;;10.35;100.00;99680.84;1808329;79;21009;-90
2022/09/26 03:57:06;;;;;;;27.87;19.57;;;;;;;10.42;100.00;99682.29;1792730;77;21095;-91
2022/09/26 03:59:35;;;;;;;29.95;19.42;;;;;;;10.42;100.00;99687.12;1775525;78;21436;-88
2022/09/26 04:02:02;;;;;;;26.45;18.30;;;;;;;10.31;100.00;99677.95;1811491;77;21006;-88
2022/09/26 04:04:31;;;;;;;31.48;19.85;;;;;;;10.31;100.00;99680.58;1796196;77;20974;-92
2022/09/26 04:06:59;;;;;;;26.40;19.57;;;;;;;10.26;100.00;99675.05;1808157;79;21041;-92
2022/09/26 04:09:26;;;;;;;28.02;19.42;;;;;;;10.24;100.00;99680.83;1808028;77;21029;-90
2022/09/26 04:11:54;;;;;;;29.98;19.40;;;;;;;10.22;100.00;99680.03;1797998;77;21209;-92
2022/09/26 04:14:21;;;;;;;25.00;16.27;;;;;;;10.21;100.00;99678.30;1793104;77;21078;-90
2022/09/26 04:16:53;;;;;;;27.80;17.65;;;;;;;10.25;100.00;99680.36;1798475;77;21131;-92
2022/09/26 04:19:27;;;;;;;25.70;17.05;;;;;;;10.27;100.00;99675.42;1809375;79;20971;-92
2022/09/26 04:21:54;;;;;;;25.27;16.23;;;;;;;10.38;100.00;99674.16;1810378;77;21342;-90
2022/09/26 04:24:29;;;;;;;21.65;15.28;;;;;;;10.41;100.00;99687.17;1808656;77;21050;-91
2022/09/26 04:27:03;;;;;;;23.87;17.07;;;;;;;10.40;100.00;99690.70;1799028;77;20864;-92
2022/09/26 04:29:43;;;;;;;28.35;19.52;;;;;;;10.35;100.00;99686.95;1779462;78;21514;-90
2022/09/26 04:32:14;;;;;;;30.77;20.05;;;;;;;10.20;100.00;99687.14;1788600;77;21045;-92
2022/09/26 04:34:52;;;;;;;29.82;20.55;;;;;;;10.16;100.00;99692.12;1785890;77;21049;-92
2022/09/26 04:37:19;;;;;;;34.53;22.10;;;;;;;10.15;100.00;99690.44;1778275;79;21489;-92
2022/09/26 04:39:47;;;;;;;38.35;23.10;;;;;;;10.20;100.00;99681.87;1796788;77;21013;-92
2022/09/26 04:42:13;;;;;;;32.83;21.60;;;;;;;10.31;100.00;99680.58;1791789;77;21487;-93
2022/09/26 04:44:41;;;;;;;31.52;21.12;;;;;;;10.33;100.00;99681.37;1787143;77;21063;-89
2022/09/26 04:47:10;;;;;;;41.58;24.00;;;;;;;10.34;100.00;99679.16;1789119;77;21110;-88
2022/09/26 04:49:50;;;;;;;33.02;19.48;;;;;;;10.36;100.00;99679.47;1796776;77;21252;-90
2022/09/26 04:52:19;;;;;;;32.33;20.05;;;;;;;10.43;100.00;99674.80;1799653;77;21056;-92
2022/09/26 04:54:46;;;;;;;33.53;20.70;;;;;;;10.53;100.00;99676.09;1784450;77;21036;-91
2022/09/26 04:57:13;;;;;;;32.05;21.00;;;;;;;10.53;100.00;99680.05;1803561;77;21013;-91
2022/09/26 04:59:40;;;;;;;30.05;20.55;;;;;;;10.49;100.00;99677.17;1801448;77;21013;-91
2022/09/26 05:02:09;;;;;;;34.13;21.17;;;;;;;10.46;100.00;99677.29;1785306;77;21183;-90
2022/09/26 05:04:40;;;;;;;32.42;21.48;;;;;;;10.51;100.00;99679.25;1803009;77;21084;-88
2022/09/26 05:07:07;;;;;;;33.63;21.45;;;;;;;10.53;100.00;99673.47;1782162;78;21037;-92
2022/09/26 05:09:35;;;;;;;40.98;23.15;;;;;;;10.49;100.00;99682.44;1801899;77;21034;-92
2022/09/26 05:12:04;;;;;;;32.65;21.00;;;;;;;10.51;100.00;99676.62;1809052;79;21032;-90
2022/09/26 05:14:34;;;;;;;34.60;21.40;;;;;;;10.60;100.00;99678.84;1792502;77;21041;-91
2022/09/26 05:17:05;;;;;;;36.28;22.30;;;;;;;10.58;100.00;99682.04;1796650;77;21119;-90
2022/09/26 05:19:33;;;;;;;24.65;17.73;;;;;;;10.57;100.00;99677.67;1809381;79;21025;-92
2022/09/26 05:22:20;;;;;;;28.90;18.05;;;;;;;10.48;100.00;99679.40;1792548;77;21723;-93
2022/09/26 05:27:32;;;;;;;25.65;17.23;;;;;;;10.57;100.00;99687.36;1808793;79;21236;-92
2022/09/26 05:29:59;;;;;;;27.58;18.92;;;;;;;10.57;100.00;99686.89;1808240;77;21029;-89
2022/09/26 05:32:27;;;;;;;24.65;18.10;;;;;;;10.59;100.00;99690.78;1784424;77;21024;-91
2022/09/26 05:34:54;;;;;;;23.02;15.53;;;;;;;10.75;100.00;99680.43;1790833;77;21067;-92
2022/09/26 05:37:21;;;;;;;24.10;17.73;;;;;;;10.67;100.00;99686.89;1801301;77;21075;-92
2022/09/26 05:42:37;;;;;;;21.87;15.38;;;;;;;10.60;100.00;99676.21;1792590;80;21056;-90
2022/09/26 05:45:05;;;;;;;20.20;14.83;;;;;;;10.57;100.00;99680.31;1778586;77;21127;-91
2022/09/26 05:47:35;;;;;;;23.63;16.03;;;;;;;10.57;100.00;99678.14;1803181;77;21029;-92
2022/09/26 05:50:08;;;;;;;22.93;15.68;;;;;;;10.53;100.00;99674.78;1792344;77;21098;-92
2022/09/26 05:52:37;;;;;;;;;;;;;;;10.51;100.00;99679.25;1802698;77;21852;-91
2022/09/26 05:55:07;;;;;;;21.82;13.70;;;;;;;10.55;100.00;99672.94;1768237;79;20234;-89
2022/09/26 05:57:36;;;;;;;24.00;15.25;;;;;;;10.50;100.00;99670.98;1752757;81;21049;-93
2022/09/26 06:00:04;;;;;;;21.23;14.28;;;;;;;10.55;100.00;99671.63;1768699;78;21084;-93
2022/09/26 06:02:45;;;;;;;20.95;14.78;;;;;;;10.56;100.00;99672.03;1778209;78;21118;-92
2022/09/26 06:05:14;;;;;;;21.00;14.07;;;;;;;10.60;100.00;99668.31;1777078;78;21656;-93
2022/09/26 06:08:00;;;;;;;19.95;14.28;;;;;;;10.62;100.00;99668.26;1776788;78;21073;-91
2022/09/26 06:10:37;;;;;;;22.45;15.43;;;;;;;10.70;100.00;99667.00;1767581;79;21120;-92
2022/09/26 06:13:04;;;;;;;25.35;16.85;;;;;;;10.75;100.00;99661.99;1755136;78;21089;-91
2022/09/26 06:15:41;;;;;;;20.65;13.80;;;;;;;10.77;100.00;99661.47;1754634;78;21236;-92
2022/09/26 06:18:07;;;;;;;20.15;14.35;;;;;;;10.80;100.00;99657.36;1775089;78;21108;-92
2022/09/26 06:20:35;;;;;;;20.55;14.00;;;;;;;10.82;100.00;99658.16;1755277;78;21112;-93
2022/09/26 06:23:02;;;;;;;19.60;12.93;;;;;;;10.89;100.00;99664.84;1755004;78;21045;-92
2022/09/26 06:25:30;;;;;;;19.12;13.08;;;;;;;10.89;100.00;99664.84;1729794;80;21002;-90
2022/09/26 06:27:59;;;;;;;25.88;14.87;;;;;;;10.89;100.00;99667.48;1781046;78;21053;-93
2022/09/26 06:30:26;;;;;;;18.30;12.80;;;;;;;10.94;100.00;99662.84;1752253;78;21256;-92
2022/09/26 06:32:54;;;;;;;19.92;14.13;;;;;;;10.97;100.00;99649.52;1771799;78;21045;-92
2022/09/26 06:37:13;;;;;;;18.95;13.48;;;;;;;10.63;100.00;99668.20;1791559;78;28219;-92
2022/09/26 06:39:40;;;;;;;19.00;12.63;;;;;;;10.64;100.00;99673.84;1784772;80;21020;-93
2022/09/26 06:42:07;;;;;;;15.08;11.68;;;;;;;10.77;100.00;99672.00;1771262;80;21228;-93
2022/09/26 06:44:52;;;;;;;20.37;11.80;;;;;;;10.74;100.00;99683.97;1725186;81;20968;-88
2022/09/26 06:47:24;;;;;;;16.82;12.47;;;;;;;10.63;100.00;99681.36;1733004;81;20862;-92
2022/09/26 06:49:53;;;;;;;19.92;13.25;;;;;;;10.63;100.00;99661.61;1751930;81;21048;-92
2022/09/26 06:52:21;;;;;;;24.12;14.43;;;;;;;10.66;100.00;99657.98;1743531;81;21132;-92
2022/09/26 06:54:48;;;;;;;23.62;14.30;;;;;;;10.71;100.00;99660.80;1702623;81;21127;-92
2022/09/26 06:57:15;;;;;;;22.42;14.65;;;;;;;10.80;100.00;99665.27;1753936;81;20984;-93
2022/09/26 08:06:24;;;;;;;23.98;16.12;;;;;;;11.73;100.00;99649.42;1818123;78;23171;-66
2022/09/26 08:08:54;;;;;;;23.02;16.32;;;;;;;11.77;100.00;99652.30;1791165;80;21052;-66
2022/09/26 08:11:40;;;;;;;19.82;14.45;;;;;;;11.85;100.00;99646.67;1791170;80;21529;-65
2022/09/26 08:14:10;;;;;;;27.90;15.55;;;;;;;11.86;100.00;99638.66;1790830;80;21247;-67
2022/09/26 08:16:40;;;;;;;21.20;15.25;;;;;;;11.83;100.00;99645.41;1790789;80;21029;-67
2022/09/26 08:19:09;;;;;;;24.87;16.02;;;;;;;11.88;100.00;99643.42;1791387;80;21536;-67
2022/09/26 08:21:36;;;;;;;18.60;14.33;;;;;;;11.92;100.00;99642.82;1791691;80;21651;-68
2022/09/26 08:24:02;;;;;;;20.45;14.45;;;;;;;11.79;100.00;99651.77;1791167;80;21976;-67
2022/09/26 08:26:49;;;;;;;26.20;16.90;;;;;;;11.85;100.00;99656.75;1790735;80;21048;-66
2022/09/26 08:29:18;;;;;;;23.62;13.83;;;;;;;11.95;100.00;99646.61;1791364;80;22185;-67
2022/09/26 08:31:46;;;;;;;17.30;12.68;;;;;;;11.96;100.00;99651.83;1791420;80;21049;-66
2022/09/26 08:34:13;;;;;;;22.02;16.02;;;;;;;11.95;100.00;99642.19;1791235;80;20981;-67
2022/09/26 08:36:40;;;;;;;22.90;15.43;;;;;;;11.93;100.00;99640.08;1786099;80;21499;-67
2022/09/26 08:39:09;;;;;;;19.82;14.23;;;;;;;11.93;100.00;99640.56;1791232;80;21576;-67
2022/09/26 08:41:56;;;;;;;19.67;13.90;;;;;;;12.00;100.00;99626.59;1790709;80;21096;-67
2022/09/26 08:44:47;;;;;;;23.57;14.83;;;;;;;12.04;100.00;99624.19;1790974;80;21587;-66
2022/09/26 08:47:42;;;;;;;18.95;12.00;;;;;;;11.99;100.00;99623.58;1791276;80;21024;-66
2022/09/26 08:50:19;;;;;;;17.20;11.33;;;;;;;12.11;100.00;99626.90;1790715;80;21130;-66
2022/09/26 08:53:01;;;;;;;23.02;15.20;;;;;;;12.13;100.00;99626.36;1790904;80;21056;-66
2022/09/26 08:55:34;;;;;;;23.70;16.65;;;;;;;12.20;100.00;99631.70;1776308;80;21107;-66
2022/09/26 08:58:06;;;;;;;23.57;13.43;;;;;;;12.27;100.00;99631.77;1700777;82;21080;-66
2022/09/26 09:00:36;;;;;;;20.92;14.75;;;;;;;12.27;100.00;99630.45;1696012;84;21109;-66
2022/09/26 09:03:20;;;;;;;27.20;15.40;;;;;;;12.30;100.00;99639.52;1679681;84;21127;-67
2022/09/26 09:05:51;;;;;;;21.37;14.47;;;;;;;12.32;100.00;99646.90;1696812;84;21090;-67
2022/09/26 09:08:22;;;;;;;22.55;13.05;;;;;;;12.34;100.00;99643.72;1695594;84;21056;-67
2022/09/26 09:11:17;;;;;;;16.07;12.30;;;;;;;12.37;100.00;99647.50;1696357;84;21065;-67
2022/09/26 09:14:23;;;;;;;28.27;15.48;;;;;;;12.47;100.00;99648.34;1696252;84;21146;-67
2022/09/26 09:17:26;;;;;;;21.57;14.47;;;;;;;12.49;100.00;99650.44;1696920;84;21696;-66
2022/09/26 09:20:15;;;;;;;21.37;13.62;;;;;;;12.53;100.00;99644.07;1696712;84;22168;-67
2022/09/26 09:23:01;;;;;;;17.35;11.80;;;;;;;12.56;100.00;99632.02;1694801;84;21005;-67
2022/09/26 09:25:40;;;;;;;20.20;13.43;;;;;;;12.67;100.00;99634.09;1696479;84;21021;-67
2022/09/26 09:28:47;;;;;;;19.90;14.10;;;;;;;12.69;100.00;99630.43;1696346;84;21076;-68
2022/09/26 09:31:15;;;;;;;21.10;13.80;;;;;;;12.73;100.00;99639.06;1696920;84;21946;-66
2022/09/26 09:33:59;;;;;;;16.93;12.40;;;;;;;12.77;100.00;99638.81;1696388;84;21045;-66
2022/09/26 09:36:53;;;;;;;17.05;11.68;;;;;;;12.79;100.00;99642.23;1696771;84;21108;-68
2022/09/26 09:39:41;;;;;;;22.33;12.20;;;;;;;12.86;100.00;99644.08;1696843;84;21048;-68
2022/09/26 09:42:30;;;;;;;18.52;12.60;;;;;;;12.93;100.00;99644.56;1696892;84;21076;-66
2022/09/26 09:45:21;;;;;;;19.87;13.58;;;;;;;12.92;100.00;99642.87;1681880;84;21596;-67
2022/09/26 09:47:48;;;;;;;20.45;14.40;;;;;;;12.98;100.00;99638.59;1696530;84;21045;-67
2022/09/26 09:50:23;;;;;;;18.65;13.25;;;;;;;13.03;100.00;99643.14;1696483;84;21105;-66
2022/09/26 09:53:22;;;;;;;17.52;12.35;;;;;;;13.09;100.00;99640.17;1673045;84;21405;-67
2022/09/26 09:56:12;;;;;;;17.32;11.75;;;;;;;13.15;100.00;99646.42;1696331;83;21054;-66
2022/09/26 09:58:58;;;;;;;19.05;12.82;;;;;;;13.19;100.00;99648.44;1696394;84;21880;-67
2022/09/26 10:01:34;;;;;;;19.65;13.53;;;;;;;13.17;100.00;99647.20;1696246;84;20998;-67
2022/09/26 10:04:12;;;;;;;16.50;11.60;;;;;;;13.23;100.00;99633.64;1678734;84;21053;-67
2022/09/26 10:06:40;;;;;;;19.27;11.78;;;;;;;13.35;100.00;99631.28;1681781;84;21025;-68
2022/09/26 10:09:22;;;;;;;22.62;13.20;;;;;;;13.38;100.00;99623.16;1696698;84;21064;-66
2022/09/26 10:12:18;;;;;;;21.77;14.00;;;;;;;13.52;100.00;99631.16;1696461;84;21118;-67
2022/09/26 10:15:07;;;;;;;24.43;13.62;;;;;;;13.70;100.00;99617.83;1696645;84;21026;-67
2022/09/26 10:18:10;;;;;;;16.60;12.18;;;;;;;13.84;100.00;99617.87;1696297;84;21052;-67
2022/09/26 10:20:53;;;;;;;16.42;12.00;;;;;;;14.06;100.00;99618.31;1696062;84;21038;-67
2022/09/26 10:23:33;;;;;;;14.65;10.25;;;;;;;14.33;100.00;99611.44;1696053;84;21112;-67
2022/09/26 10:26:05;;;;;;;16.60;11.43;;;;;;;14.62;100.00;99617.64;1695550;84;21156;-67
2022/09/26 10:28:46;;;;;;;15.00;11.65;;;;;;;14.87;100.00;99611.18;1696096;84;21293;-68
2022/09/26 10:31:30;;;;;;;17.90;12.10;;;;;;;15.09;100.00;99608.48;1696058;84;21061;-67
2022/09/26 10:34:08;;;;;;;19.30;11.30;;;;;;;15.24;100.00;99595.56;1688811;84;21069;-67
2022/09/26 10:36:39;;;;;;;16.37;11.68;;;;;;;15.47;100.00;99586.59;1694716;84;21112;-67
2022/09/26 10:42:20;;;;;;;15.60;10.80;;;;;;;16.04;100.00;99580.16;1696169;84;21175;-67
2022/09/26 10:44:49;;;;;;;15.55;10.25;;;;;;;16.54;100.00;99572.66;1696154;84;21085;-68
2022/09/26 10:47:23;;;;;;;13.72;9.83;;;;;;;16.97;96.83;99564.28;1696427;83;21073;-67
2022/09/26 10:50:03;;;;;;;18.40;10.03;;;;;;;17.20;95.41;99564.42;1696323;84;21068;-70
2022/09/26 10:52:55;;;;;;;18.05;9.43;;;;;;;17.79;93.64;99556.44;1696318;84;21186;-67
2022/09/26 10:55:35;;;;;;;15.60;8.53;;;;;;;18.33;91.69;99554.13;1709046;83;21096;-67
2022/09/26 10:58:05;;;;;;;12.50;8.53;;;;;;;18.99;88.95;99548.42;1710043;83;21108;-67
2022/09/26 11:00:39;;;;;;;14.65;8.83;;;;;;;19.76;85.48;99544.78;1725503;83;21071;-68
2022/09/26 11:03:12;;;;;;;12.25;8.80;;;;;;;20.45;81.62;99546.86;1689980;84;21048;-67
2022/09/26 11:05:58;;;;;;;11.95;8.38;;;;;;;20.97;72.91;99549.44;1698749;84;21817;-67
2022/09/26 11:08:31;;;;;;;11.60;7.75;;;;;;;21.37;70.91;99550.71;1725346;83;21037;-68
2022/09/26 11:11:16;;;;;;;15.80;8.30;;;;;;;21.44;66.07;99544.80;1630839;87;21132;-67
2022/09/26 11:14:02;;;;;;;11.65;8.08;;;;;;;21.05;58.06;99541.58;1696338;83;21041;-67
2022/09/26 11:16:27;;;;;;;12.20;8.88;;;;;;;20.83;59.33;99541.81;1725294;82;21096;-68
2022/09/26 11:19:25;;;;;;;10.03;7.83;;;;;;;20.71;59.76;99535.72;1689774;84;21594;-68
2022/09/26 11:22:11;;;;;;;11.45;7.92;;;;;;;20.87;59.91;99531.19;1694638;84;21056;-67
2022/09/26 11:24:52;;;;;;;11.25;7.17;;;;;;;21.11;58.93;99534.31;1725213;82;21068;-67
2022/09/26 11:27:56;;;;;;;11.83;7.10;;;;;;;21.22;57.29;99520.46;1688583;84;21423;-67
2022/09/26 11:30:25;;;;;;;9.83;7.30;;;;;;;21.34;56.47;99520.67;1699550;84;21069;-67
2022/09/26 11:32:56;;;;;;;12.53;7.00;;;;;;;21.20;56.78;99515.23;1724752;83;21196;-67
2022/09/26 11:35:50;;;;;;;10.23;6.67;;;;;;;21.19;56.87;99518.05;1682491;83;21100;-67
2022/09/26 11:38:37;;;;;;;9.93;6.92;;;;;;;21.10;58.10;99511.22;1725162;83;21596;-67
2022/09/26 11:41:04;;;;;;;11.15;7.20;;;;;;;21.19;57.28;99510.02;1690746;84;21098;-67
2022/09/26 11:43:56;;;;;;;11.97;7.60;;;;;;;21.25;56.33;99513.48;1699542;84;21620;-67
2022/09/26 11:46:59;;;;;;;11.12;7.25;;;;;;;21.13;57.19;99514.95;1724816;83;21144;-68
2022/09/26 11:49:41;;;;;;;;;;;;;;;21.01;58.39;99513.39;1725070;83;21119;-67
2022/09/26 11:52:57;;;;;;;10.40;6.87;;;;;;;20.96;58.40;99512.97;1694938;84;20474;-67
2022/09/26 11:56:16;;;;;;;9.78;7.28;;;;;;;20.73;58.54;99518.55;1712146;83;21055;-67
2022/09/26 11:59:08;;;;;;;9.57;7.20;;;;;;;20.69;59.24;99522.47;1690904;84;21064;-67
2022/09/26 12:01:53;;;;;;;11.08;7.12;;;;;;;20.45;59.40;99513.90;1690922;84;21260;-68
2022/09/26 12:05:01;;;;;;;11.88;7.03;;;;;;;20.30;59.40;99518.28;1691013;84;21052;-66
2022/09/26 12:07:45;;;;;;;13.88;8.25;;;;;;;20.08;59.96;99518.44;1695624;84;20994;-66
2022/09/26 12:10:32;;;;;;;11.15;7.67;;;;;;;19.83;60.76;99511.22;1696055;84;21053;-67
2022/09/26 12:13:36;;;;;;;11.40;7.90;;;;;;;19.68;61.35;99505.34;1695892;84;21619;-67
2022/09/26 12:16:20;;;;;;;14.78;9.60;;;;;;;19.53;62.56;99497.74;1696391;84;21225;-67
2022/09/26 12:19:18;;;;;;;16.15;8.65;;;;;;;19.50;63.34;99510.38;1687207;84;21045;-67
2022/09/26 12:22:29;;;;;;;14.03;8.48;;;;;;;19.40;62.76;99504.62;1655828;86;21112;-67
2022/09/26 12:25:27;;;;;;;;;;;;;;;19.18;63.87;99502.88;1630710;85;21688;-67
2022/09/26 12:28:24;;;;;;;17.77;9.73;;;;;;;19.11;64.59;99493.69;1678546;85;20164;-67
2022/09/26 12:30:59;;;;;;;18.85;10.93;;;;;;;19.05;65.61;99494.56;1678415;85;21161;-67
2022/09/26 12:33:51;;;;;;;21.87;10.03;;;;;;;19.12;64.79;99498.91;1678351;84;21034;-67
2022/09/26 12:37:00;;;;;;;21.82;9.78;;;;;;;19.04;64.82;99498.19;1651381;85;21169;-67
2022/09/26 12:39:57;;;;;;;15.20;8.50;;;;;;;19.04;64.96;99492.84;1678457;85;21081;-66
2022/09/26 12:42:41;;;;;;;11.80;8.58;;;;;;;19.07;65.83;99495.74;1678383;85;21405;-69
2022/09/26 12:45:57;;;;;;;12.40;8.23;;;;;;;19.06;66.43;99490.91;1607425;85;21786;-68
2022/09/26 12:48:50;;;;;;;16.15;8.63;;;;;;;19.01;68.17;99486.93;1679390;85;21555;-68
2022/09/26 12:51:31;;;;;;;14.85;8.78;;;;;;;19.04;68.19;99490.17;1679276;85;21604;-67
2022/09/26 12:54:31;;;;;;;19.65;8.45;;;;;;;19.03;68.28;99484.50;1676050;85;21039;-67
2022/09/26 12:57:20;;;;;;;21.93;9.30;;;;;;;19.11;67.82;99482.52;1707664;84;21052;-67
2022/09/26 13:00:21;;;;;;;16.00;7.85;;;;;;;19.12;68.39;99479.35;1707956;84;21189;-67
2022/09/26 13:03:15;;;;;;;20.50;8.53;;;;;;;19.08;67.60;99474.77;1707631;84;21056;-67
2022/09/26 13:06:22;;;;;;;17.48;8.60;;;;;;;19.08;68.01;99480.95;1708148;83;21080;-68
2022/09/26 13:09:09;;;;;;;15.25;8.05;;;;;;;19.04;68.68;99481.33;1710102;83;21036;-68
2022/09/26 13:12:04;;;;;;;19.12;7.75;;;;;;;19.00;68.52;99475.87;1672821;83;21619;-68
2022/09/26 13:14:42;;;;;;;15.08;8.00;;;;;;;19.10;68.26;99474.66;1675780;83;21162;-68
2022/09/26 13:17:21;;;;;;;13.43;7.75;;;;;;;18.99;68.98;99476.87;1710434;83;21063;-68
2022/09/26 13:20:17;;;;;;;13.68;7.90;;;;;;;18.97;68.16;99478.32;1697630;83;21090;-68
2022/09/26 13:23:06;;;;;;;14.65;8.33;;;;;;;18.99;67.50;99475.05;1710858;83;21090;-68